createdAt,value
2023-04-02T00:00:06.165Z,6.03
2023-04-02T00:02:47.959Z,5.85
2023-04-02T00:05:51.009Z,5.68
2023-04-02T00:08:22.089Z,5.44
2023-04-02T00:10:52.222Z,5.28
2023-04-02T00:13:25.564Z,5.20
2023-04-02T00:15:58.531Z,5.07
2023-04-02T00:18:28.496Z,4.96
2023-04-02T00:21:01.945Z,4.91
2023-04-02T00:23:31.118Z,4.82
2023-04-02T00:26:00.129Z,4.87
2023-04-02T00:28:28.211Z,4.85
2023-04-02T00:31:00.027Z,4.86
2023-04-02T00:33:29.237Z,4.85
2023-04-02T00:35:59.726Z,4.81
2023-04-02T00:38:28.871Z,4.78
2023-04-02T00:40:58.282Z,4.76
2023-04-02T00:43:28.073Z,4.73
2023-04-02T00:45:58.217Z,4.68
2023-04-02T00:48:39.179Z,4.67
2023-04-02T00:51:13.576Z,4.64
2023-04-02T00:53:43.768Z,4.65
2023-04-02T00:56:16.913Z,4.65
2023-04-02T00:58:45.941Z,4.65
2023-04-02T01:01:19.122Z,4.61
2023-04-02T01:03:58.348Z,4.61
2023-04-02T01:06:31.320Z,4.67
2023-04-02T01:09:18.481Z,4.68
2023-04-02T01:11:54.132Z,4.70
2023-04-02T01:14:33.259Z,4.74
2023-04-02T01:17:06.147Z,4.75
2023-04-02T01:19:50.549Z,4.78
2023-04-02T01:22:23.311Z,4.82
2023-04-02T01:24:51.982Z,4.87
2023-04-02T01:27:22.050Z,4.89
2023-04-02T01:29:55.797Z,4.90
2023-04-02T01:32:25.126Z,4.93
2023-04-02T01:34:54.349Z,4.96
2023-04-02T01:37:28.915Z,4.95
2023-04-02T01:40:05.114Z,4.94
2023-04-02T01:42:38.384Z,4.97
2023-04-02T01:45:09.926Z,4.92
2023-04-02T01:47:39.031Z,4.86
2023-04-02T01:50:25.438Z,4.87
2023-04-02T01:52:56.793Z,4.86
2023-04-02T01:55:31.481Z,4.82
2023-04-02T01:58:02.160Z,4.76
2023-04-02T02:00:33.165Z,4.80
2023-04-02T02:03:02.610Z,4.84
2023-04-02T02:05:31.978Z,4.81
2023-04-02T02:08:02.605Z,4.71
2023-04-02T02:10:34.582Z,4.76
2023-04-02T02:13:02.935Z,4.72
2023-04-02T02:15:34.670Z,4.67
2023-04-02T02:18:05.564Z,4.65
2023-04-02T02:20:35.735Z,4.58
2023-04-02T02:23:05.674Z,4.60
2023-04-02T02:25:36.325Z,4.64
2023-04-02T02:28:08.929Z,4.66
2023-04-02T02:30:41.110Z,4.64
2023-04-02T02:33:16.528Z,4.65
2023-04-02T02:35:47.968Z,4.65
2023-04-02T02:38:30.659Z,4.68
2023-04-02T02:41:06.133Z,4.67
2023-04-02T02:43:36.541Z,4.69
2023-04-02T02:46:07.018Z,4.77
2023-04-02T02:48:37.645Z,4.80
2023-04-02T02:51:10.388Z,4.80
2023-04-02T02:53:46.928Z,4.87
2023-04-02T02:56:15.881Z,4.86
2023-04-02T02:58:45.978Z,4.87
2023-04-02T03:01:23.966Z,4.94
2023-04-02T03:03:55.996Z,4.98
2023-04-02T03:06:26.392Z,5.02
2023-04-02T03:09:02.421Z,5.00
2023-04-02T03:11:38.116Z,5.01
2023-04-02T03:14:16.147Z,5.03
2023-04-02T03:16:48.279Z,5.02
2023-04-02T03:19:25.496Z,5.05
2023-04-02T03:21:55.438Z,5.02
2023-04-02T03:24:28.752Z,5.01
2023-04-02T03:27:00.751Z,5.01
2023-04-02T03:29:31.292Z,5.02
2023-04-02T03:32:02.637Z,5.04
2023-04-02T03:34:34.308Z,5.05
2023-04-02T03:37:09.622Z,5.02
2023-04-02T03:39:42.054Z,5.05
2023-04-02T03:42:14.100Z,5.03
2023-04-02T03:44:46.777Z,5.09
2023-04-02T03:47:20.653Z,5.06
2023-04-02T03:49:51.859Z,5.05
2023-04-02T03:52:24.158Z,5.07
2023-04-02T03:54:53.516Z,5.07
2023-04-02T03:57:26.979Z,5.07
2023-04-02T03:59:58.345Z,5.10
2023-04-02T04:02:36.634Z,5.11
2023-04-02T04:05:06.913Z,5.11
2023-04-02T04:07:38.003Z,5.10
2023-04-02T04:10:07.957Z,5.12
2023-04-02T04:12:37.483Z,5.14
2023-04-02T04:15:10.144Z,5.19
2023-04-02T04:17:51.668Z,5.22
2023-04-02T04:20:26.318Z,5.23
2023-04-02T04:22:56.301Z,5.26
2023-04-02T04:25:29.793Z,5.27
2023-04-02T04:28:07.873Z,5.29
2023-04-02T04:30:45.642Z,5.28
2023-04-02T04:33:22.456Z,5.31
2023-04-02T04:35:55.521Z,5.32
2023-04-02T04:38:32.886Z,5.32
2023-04-02T04:41:04.601Z,5.32
2023-04-02T04:43:39.072Z,5.33
2023-04-02T04:46:10.436Z,5.32
2023-04-02T04:48:42.451Z,5.31
2023-04-02T04:51:18.528Z,5.26
2023-04-02T04:53:48.654Z,5.27
2023-04-02T04:56:20.719Z,5.25
2023-04-02T04:58:55.652Z,5.22
2023-04-02T05:01:26.512Z,5.21
2023-04-02T05:04:00.967Z,5.21
2023-04-02T05:06:39.108Z,5.18
2023-04-02T05:09:13.424Z,5.10
2023-04-02T05:11:45.369Z,5.02
2023-04-02T05:14:19.326Z,5.05
2023-04-02T05:16:50.419Z,5.00
2023-04-02T05:19:23.302Z,4.97
2023-04-02T05:21:55.775Z,4.94
2023-04-02T05:24:37.788Z,4.93
2023-04-02T05:27:10.952Z,4.87
2023-04-02T05:29:42.866Z,4.82
2023-04-02T05:32:15.068Z,4.83
2023-04-02T05:34:49.281Z,4.84
2023-04-02T05:37:21.264Z,4.84
2023-04-02T05:39:51.826Z,4.85
2023-04-02T05:42:21.961Z,4.84
2023-04-02T05:45:08.008Z,4.87
2023-04-02T05:47:41.288Z,4.84
2023-04-02T05:53:09.872Z,4.87
2023-04-02T05:55:42.895Z,4.89
2023-04-02T05:58:34.552Z,4.90
2023-04-02T06:01:15.672Z,4.92
2023-04-02T06:03:48.161Z,4.96
2023-04-02T06:06:22.137Z,4.95
2023-04-02T06:08:54.682Z,4.97
2023-04-02T06:11:25.409Z,4.99
2023-04-02T06:13:55.125Z,5.01
2023-04-02T06:16:28.072Z,5.02
2023-04-02T06:18:56.754Z,5.05
2023-04-02T06:21:27.082Z,5.07
2023-04-02T06:24:00.547Z,5.05
2023-04-02T06:26:33.676Z,5.05
2023-04-02T06:29:05.920Z,5.06
2023-04-02T06:31:37.787Z,5.08
2023-04-02T06:34:12.157Z,5.10
2023-04-02T06:36:41.406Z,5.14
2023-04-02T06:39:18.489Z,5.14
2023-04-02T06:41:47.834Z,5.13
2023-04-02T06:44:39.293Z,5.16
2023-04-02T06:47:20.796Z,5.17
2023-04-02T06:49:52.894Z,5.21
2023-04-02T06:52:25.314Z,5.26
2023-04-02T06:54:55.673Z,5.31
2023-04-02T06:57:24.627Z,5.36
2023-04-02T06:59:54.203Z,5.44
2023-04-02T07:02:30.963Z,5.51
2023-04-02T07:05:03.158Z,5.59
2023-04-02T07:07:34.098Z,5.66
2023-04-02T07:10:09.312Z,5.75
2023-04-02T07:12:37.679Z,5.85
2023-04-02T07:15:06.424Z,5.94
2023-04-02T07:17:35.089Z,6.04
2023-04-02T07:20:03.284Z,6.16
2023-04-02T07:22:31.537Z,6.29
2023-04-02T07:25:02.540Z,6.37
2023-04-02T07:27:32.403Z,6.45
2023-04-02T07:30:01.069Z,6.55
2023-04-02T07:32:29.396Z,6.57
2023-04-02T07:34:57.571Z,6.66
2023-04-02T07:37:25.606Z,6.82
2023-04-02T07:39:53.697Z,6.86
2023-04-02T07:42:22.018Z,7.02
2023-04-02T07:44:52.122Z,7.16
2023-04-02T07:47:20.461Z,7.27
2023-04-02T07:49:48.725Z,7.39
2023-04-02T07:52:17.189Z,7.54
2023-04-02T07:54:45.840Z,7.67
2023-04-02T07:57:14.013Z,7.75
2023-04-02T07:59:42.640Z,7.77
2023-04-02T08:02:19.625Z,7.86
2023-04-02T08:04:48.119Z,8.01
2023-04-02T08:07:16.551Z,8.14
2023-04-02T08:09:44.838Z,8.30
2023-04-02T08:12:14.296Z,8.41
2023-04-02T08:14:42.312Z,8.50
2023-04-02T08:17:11.360Z,8.47
2023-04-02T08:19:53.765Z,8.58
2023-04-02T08:22:23.026Z,8.69
2023-04-02T08:24:51.232Z,8.93
2023-04-02T08:27:19.925Z,9.06
2023-04-02T08:29:48.154Z,9.33
2023-04-02T08:32:17.245Z,9.68
2023-04-02T08:34:47.059Z,10.08
2023-04-02T08:37:15.881Z,10.28
2023-04-02T08:39:44.661Z,10.44
2023-04-02T08:42:20.781Z,10.50
2023-04-02T08:44:54.756Z,10.65
2023-04-02T08:47:26.287Z,10.72
2023-04-02T08:49:59.017Z,10.59
2023-04-02T08:52:29.093Z,10.57
2023-04-02T08:54:58.217Z,10.51
2023-04-02T08:57:37.599Z,10.18
2023-04-02T09:00:10.759Z,10.07
2023-04-02T09:02:41.439Z,10.11
2023-04-02T09:05:17.918Z,10.49
2023-04-02T09:07:47.038Z,10.89
2023-04-02T09:10:16.861Z,11.42
2023-04-02T09:12:47.721Z,11.50
2023-04-02T09:15:20.613Z,11.67
2023-04-02T09:17:54.192Z,11.74
2023-04-02T09:20:26.463Z,12.42
2023-04-02T09:22:55.603Z,13.18
2023-04-02T09:25:26.975Z,13.41
2023-04-02T09:27:56.558Z,13.39
2023-04-02T09:30:30.281Z,13.61
2023-04-02T09:33:02.144Z,13.99
2023-04-02T09:35:32.652Z,14.20
2023-04-02T09:38:19.059Z,14.32
2023-04-02T09:40:49.972Z,14.24
2023-04-02T09:43:19.623Z,14.48
2023-04-02T09:45:57.628Z,14.70
2023-04-02T09:48:27.168Z,15.21
2023-04-02T09:51:07.874Z,15.35
2023-04-02T09:53:36.890Z,15.78
2023-04-02T09:56:13.080Z,15.62
2023-04-02T09:58:42.074Z,15.18
2023-04-02T10:01:26.077Z,15.66
2023-04-02T10:03:55.305Z,16.56
2023-04-02T10:06:26.023Z,16.97
2023-04-02T10:08:54.675Z,17.46
2023-04-02T10:11:30.953Z,18.31
2023-04-02T10:14:08.000Z,18.59
2023-04-02T10:16:39.043Z,18.60
2023-04-02T10:19:14.897Z,18.80
2023-04-02T10:21:45.786Z,19.23
2023-04-02T10:24:16.508Z,18.78
2023-04-02T10:26:53.183Z,19.55
2023-04-02T10:29:28.646Z,18.90
2023-04-02T10:32:02.454Z,19.25
2023-04-02T10:34:36.289Z,19.49
2023-04-02T10:37:14.013Z,19.88
2023-04-02T10:39:44.318Z,19.68
2023-04-02T10:42:16.815Z,19.47
2023-04-02T10:44:51.461Z,19.26
2023-04-02T10:47:27.490Z,18.87
2023-04-02T10:50:02.404Z,19.16
2023-04-02T10:52:36.208Z,18.73
2023-04-02T10:55:06.625Z,18.69
2023-04-02T10:57:38.148Z,18.65
2023-04-02T11:00:10.607Z,18.34
2023-04-02T11:02:42.768Z,18.61
2023-04-02T11:05:22.254Z,18.56
2023-04-02T11:07:56.042Z,19.35
2023-04-02T11:10:24.651Z,19.88
2023-04-02T11:12:56.594Z,19.21
2023-04-02T11:15:25.309Z,19.08
2023-04-02T11:17:53.719Z,18.80
2023-04-02T11:20:40.762Z,19.02
2023-04-02T11:23:13.106Z,18.68
2023-04-02T11:25:42.616Z,18.62
2023-04-02T11:28:15.662Z,18.68
2023-04-02T11:30:44.252Z,18.45
2023-04-02T11:33:35.894Z,18.28
2023-04-02T11:36:04.899Z,18.14
2023-04-02T11:38:56.109Z,17.91
2023-04-02T11:41:44.642Z,17.72
2023-04-02T11:44:24.340Z,18.10
2023-04-02T11:46:52.545Z,18.01
2023-04-02T11:49:51.028Z,17.87
2023-04-02T11:52:21.991Z,18.23
2023-04-02T11:54:58.461Z,18.48
2023-04-02T11:57:43.048Z,18.81
2023-04-02T12:00:18.583Z,18.50
2023-04-02T12:02:54.856Z,18.12
2023-04-02T12:05:27.408Z,18.02
2023-04-02T12:08:07.613Z,17.66
2023-04-02T12:10:52.514Z,17.18
2023-04-02T12:13:21.225Z,17.18
2023-04-02T12:15:50.630Z,17.05
2023-04-02T12:18:21.074Z,16.65
2023-04-02T12:20:50.966Z,16.38
2023-04-02T12:23:21.394Z,15.77
2023-04-02T12:25:57.010Z,15.54
2023-04-02T12:28:25.504Z,15.19
2023-04-02T12:31:03.541Z,15.25
2023-04-02T12:33:33.990Z,15.20
2023-04-02T12:36:03.642Z,15.28
2023-04-02T12:38:32.945Z,15.22
2023-04-02T12:41:03.773Z,15.00
2023-04-02T12:43:33.329Z,15.15
2023-04-02T12:46:02.620Z,15.02
2023-04-02T12:48:31.505Z,15.01
2023-04-02T12:51:00.446Z,15.19
2023-04-02T12:53:31.378Z,15.01
2023-04-02T12:55:59.696Z,14.99
2023-04-02T12:58:31.002Z,15.00
2023-04-02T13:01:13.035Z,15.20
2023-04-02T13:03:41.976Z,15.11
2023-04-02T13:06:24.625Z,14.83
2023-04-02T13:08:52.707Z,14.76
2023-04-02T13:11:21.030Z,14.79
2023-04-02T13:13:51.388Z,14.85
2023-04-02T13:16:30.521Z,14.95
2023-04-02T13:19:12.405Z,15.03
2023-04-02T13:21:40.445Z,14.99
2023-04-02T13:24:18.124Z,14.90
2023-04-02T13:26:48.054Z,14.59
2023-04-02T13:29:20.738Z,14.49
2023-04-02T13:31:49.315Z,14.55
2023-04-02T13:34:18.735Z,14.48
2023-04-02T13:36:47.832Z,14.65
2023-04-02T13:39:16.246Z,14.87
2023-04-02T13:41:45.935Z,14.92
2023-04-02T13:44:19.799Z,15.00
2023-04-02T13:46:49.447Z,15.16
2023-04-02T13:49:17.624Z,15.36
2023-04-02T13:51:47.469Z,15.38
2023-04-02T13:54:20.006Z,15.32
2023-04-02T13:56:48.234Z,15.27
2023-04-02T13:59:16.464Z,15.13
2023-04-02T14:01:46.054Z,15.33
2023-04-02T14:04:18.923Z,15.22
2023-04-02T14:07:08.159Z,15.40
2023-04-02T14:09:41.665Z,15.67
2023-04-02T14:12:12.940Z,15.64
2023-04-02T14:14:59.546Z,15.59
2023-04-02T14:17:36.219Z,15.72
2023-04-02T14:20:12.174Z,15.68
2023-04-02T14:22:50.835Z,15.81
2023-04-02T14:25:26.247Z,16.04
2023-04-02T14:27:58.164Z,16.09
2023-04-02T14:30:28.652Z,15.90
2023-04-02T14:33:01.532Z,15.84
2023-04-02T14:35:35.347Z,16.02
2023-04-02T14:38:10.694Z,16.10
2023-04-02T14:40:42.290Z,16.06
2023-04-02T14:43:13.465Z,15.97
2023-04-02T14:45:46.418Z,15.88
2023-04-02T14:48:22.737Z,15.90
2023-04-02T14:50:53.092Z,15.69
2023-04-02T14:53:24.504Z,15.72
2023-04-02T14:55:54.296Z,15.67
2023-04-02T14:58:24.584Z,15.54
2023-04-02T15:00:55.333Z,15.58
2023-04-02T15:03:25.226Z,15.37
2023-04-02T15:05:57.523Z,15.52
2023-04-02T15:08:27.574Z,15.48
2023-04-02T15:11:00.958Z,15.56
2023-04-02T15:13:34.593Z,15.48
2023-04-02T15:16:09.584Z,15.47
2023-04-02T15:18:39.420Z,15.58
2023-04-02T15:21:20.448Z,15.56
2023-04-02T15:23:55.008Z,15.43
2023-04-02T15:26:27.223Z,15.45
2023-04-02T15:29:02.760Z,15.42
2023-04-02T15:31:31.281Z,15.30
2023-04-02T15:34:12.655Z,15.26
2023-04-02T15:36:50.834Z,15.41
2023-04-02T15:39:30.817Z,15.15
2023-04-02T15:42:04.425Z,14.99
2023-04-02T15:44:33.253Z,14.97
2023-04-02T15:47:04.655Z,14.92
2023-04-02T15:49:41.202Z,15.05
2023-04-02T15:52:12.069Z,15.01
2023-04-02T15:54:58.135Z,15.08
2023-04-02T15:57:34.283Z,15.03
2023-04-02T16:00:22.591Z,14.95
2023-04-02T16:03:07.568Z,14.96
2023-04-02T16:05:40.072Z,14.92
2023-04-02T16:08:20.277Z,14.88
2023-04-02T16:10:48.790Z,14.67
2023-04-02T16:13:20.089Z,14.68
2023-04-02T16:15:52.885Z,14.73
2023-04-02T16:18:30.758Z,14.83
2023-04-02T16:21:01.663Z,14.85
2023-04-02T16:23:35.450Z,14.93
2023-04-02T16:26:08.338Z,14.97
2023-04-02T16:28:41.236Z,15.03
2023-04-02T16:31:12.040Z,15.00
2023-04-02T16:33:52.548Z,15.02
2023-04-02T16:36:29.655Z,14.96
2023-04-02T16:39:02.871Z,14.91
2023-04-02T16:41:38.762Z,15.01
2023-04-02T16:44:13.993Z,14.98
2023-04-02T16:46:48.403Z,15.01
2023-04-02T16:49:22.355Z,14.67
2023-04-02T16:51:56.857Z,14.51
2023-04-02T16:54:32.373Z,14.47
2023-04-02T16:57:11.226Z,14.51
2023-04-02T16:59:46.260Z,14.45
2023-04-02T17:02:21.786Z,14.49
2023-04-02T17:04:55.681Z,14.39
2023-04-02T17:07:29.158Z,14.24
2023-04-02T17:10:03.614Z,14.07
2023-04-02T17:12:34.273Z,14.06
2023-04-02T17:15:07.371Z,13.82
2023-04-02T17:17:41.676Z,13.68
2023-04-02T17:20:15.530Z,13.54
2023-04-02T17:22:44.031Z,13.62
2023-04-02T17:25:19.726Z,13.45
2023-04-02T17:27:50.204Z,13.41
2023-04-02T17:30:20.507Z,13.12
2023-04-02T17:32:49.643Z,13.19
2023-04-02T17:35:19.264Z,12.86
2023-04-02T17:37:52.823Z,12.83
2023-04-02T17:40:27.552Z,12.51
2023-04-02T17:43:01.844Z,12.53
2023-04-02T17:45:34.658Z,12.37
2023-04-02T17:48:04.413Z,12.26
2023-04-02T17:50:44.168Z,12.25
2023-04-02T17:53:20.639Z,12.20
2023-04-02T17:55:57.632Z,12.02
2023-04-02T17:58:39.909Z,12.02
2023-04-02T18:01:14.933Z,12.01
2023-04-02T18:03:52.401Z,11.77
2023-04-02T18:06:23.678Z,11.88
2023-04-02T18:09:04.419Z,11.83
2023-04-02T18:11:40.174Z,11.56
2023-04-02T18:14:18.751Z,11.53
2023-04-02T18:16:50.250Z,11.48
2023-04-02T18:19:20.794Z,11.31
2023-04-02T18:21:53.944Z,11.43
2023-04-02T18:24:29.870Z,11.29
2023-04-02T18:27:07.878Z,11.20
2023-04-02T18:29:42.637Z,11.22
2023-04-02T18:32:27.015Z,11.13
2023-04-02T18:35:01.906Z,10.96
2023-04-02T18:37:34.261Z,10.78
2023-04-02T18:40:16.424Z,10.82
2023-04-02T18:42:59.622Z,10.79
2023-04-02T18:45:32.806Z,10.75
2023-04-02T18:48:07.645Z,10.61
2023-04-02T18:50:39.357Z,10.47
2023-04-02T18:53:14.418Z,10.40
2023-04-02T18:55:47.004Z,10.26
2023-04-02T18:58:22.247Z,10.15
2023-04-02T19:00:51.794Z,10.07
2023-04-02T19:03:25.063Z,9.92
2023-04-02T19:05:58.128Z,9.76
2023-04-02T19:08:30.349Z,9.66
2023-04-02T19:11:00.984Z,9.60
2023-04-02T19:13:31.559Z,9.56
2023-04-02T19:16:08.067Z,9.48
2023-04-02T19:18:42.352Z,9.35
2023-04-02T19:21:16.062Z,9.29
2023-04-02T19:23:57.612Z,9.09
2023-04-02T19:26:31.434Z,8.96
2023-04-02T19:29:08.152Z,8.95
2023-04-02T19:31:43.201Z,8.85
2023-04-02T19:34:19.527Z,8.73
2023-04-02T19:36:51.486Z,8.60
2023-04-02T19:39:40.660Z,8.55
2023-04-02T19:42:13.462Z,8.59
2023-04-02T19:44:45.650Z,8.44
2023-04-02T19:47:14.586Z,8.41
2023-04-02T19:49:43.416Z,8.37
2023-04-02T19:52:12.617Z,8.33
2023-04-02T19:54:43.058Z,8.27
2023-04-02T19:57:15.038Z,8.27
2023-04-02T19:59:46.695Z,8.20
2023-04-02T20:02:16.876Z,8.07
2023-04-02T20:04:48.172Z,8.08
2023-04-02T20:07:17.310Z,8.02
2023-04-02T20:09:45.523Z,7.96
2023-04-02T20:12:13.561Z,7.92
2023-04-02T20:14:41.746Z,7.85
2023-04-02T20:17:11.796Z,7.80
2023-04-02T20:19:39.852Z,7.71
2023-04-02T20:22:09.053Z,7.61
2023-04-02T20:24:37.267Z,7.52
2023-04-02T20:27:05.654Z,7.46
2023-04-02T20:29:34.007Z,7.42
2023-04-02T20:32:02.282Z,7.35
2023-04-02T20:34:32.645Z,7.31
2023-04-02T20:37:01.180Z,7.22
2023-04-02T20:39:29.644Z,7.28
2023-04-02T20:42:01.278Z,7.24
2023-04-02T20:44:29.822Z,7.20
2023-04-02T20:46:57.898Z,7.17
2023-04-02T20:49:26.613Z,7.14
2023-04-02T20:51:56.525Z,7.08
2023-04-02T20:54:24.806Z,7.02
2023-04-02T20:56:53.067Z,6.98
2023-04-02T20:59:21.152Z,6.93
2023-04-02T21:01:49.974Z,6.88
2023-04-02T21:04:18.806Z,6.81
2023-04-02T21:06:47.364Z,6.77
2023-04-02T21:09:19.982Z,6.69
2023-04-02T21:11:48.027Z,6.61
2023-04-02T21:14:16.886Z,6.54
2023-04-02T21:16:45.771Z,6.48
2023-04-02T21:19:13.821Z,6.42
2023-04-02T21:21:44.273Z,6.36
2023-04-02T21:24:12.874Z,6.29
2023-04-02T21:26:42.733Z,6.22
2023-04-02T21:29:14.016Z,6.22
2023-04-02T21:31:42.808Z,6.18
2023-04-02T21:34:14.035Z,6.16
2023-04-02T21:36:43.392Z,6.12
2023-04-02T21:39:12.558Z,6.10
2023-04-02T21:41:44.414Z,6.01
2023-04-02T21:44:14.574Z,6.00
2023-04-02T21:46:43.568Z,5.99
2023-04-02T21:49:12.743Z,5.99
2023-04-02T21:51:42.246Z,5.98
2023-04-02T21:54:10.787Z,5.95
2023-04-02T21:56:40.553Z,5.94
2023-04-02T21:59:11.636Z,5.92
2023-04-02T22:01:41.508Z,5.86
2023-04-02T22:04:10.610Z,5.81
2023-04-02T22:06:39.688Z,5.79
2023-04-02T22:09:08.229Z,5.77
2023-04-02T22:11:37.214Z,5.75
2023-04-02T22:14:06.307Z,5.72
2023-04-02T22:16:36.666Z,5.68
2023-04-02T22:19:06.777Z,5.64
2023-04-02T22:21:35.371Z,5.53
2023-04-02T22:24:04.167Z,5.49
2023-04-02T22:26:32.881Z,5.47
2023-04-02T22:29:01.453Z,5.39
2023-04-02T22:31:31.388Z,5.38
2023-04-02T22:34:01.638Z,5.34
2023-04-02T22:36:30.466Z,5.33
2023-04-02T22:38:59.046Z,5.26
2023-04-02T22:41:28.235Z,5.27
2023-04-02T22:43:57.197Z,5.23
2023-04-02T22:46:26.142Z,5.19
2023-04-02T22:48:55.818Z,5.19
2023-04-02T22:51:26.088Z,5.17
2023-04-02T22:53:54.772Z,5.12
2023-04-02T22:56:23.722Z,5.09
2023-04-02T22:58:51.893Z,5.10
2023-04-02T23:01:21.486Z,5.08
2023-04-02T23:03:50.224Z,5.08
2023-04-02T23:06:19.697Z,5.08
2023-04-02T23:08:49.500Z,5.04
2023-04-02T23:11:18.988Z,5.02
2023-04-02T23:13:49.059Z,5.01
2023-04-02T23:16:17.675Z,5.02
2023-04-02T23:18:48.087Z,4.98
2023-04-02T23:21:16.394Z,4.98
2023-04-02T23:23:44.511Z,4.94
2023-04-02T23:26:15.599Z,4.94
2023-04-02T23:28:44.547Z,4.91
2023-04-02T23:31:14.230Z,4.92
2023-04-02T23:33:42.526Z,4.89
2023-04-02T23:36:11.476Z,4.88
2023-04-02T23:38:39.822Z,4.87
2023-04-02T23:41:08.556Z,4.85
2023-04-02T23:43:38.047Z,4.82
2023-04-02T23:46:06.484Z,4.80
2023-04-02T23:48:34.620Z,4.78
2023-04-02T23:51:02.726Z,4.75
2023-04-02T23:53:31.161Z,4.78
2023-04-02T23:55:59.560Z,4.78
2023-04-02T23:58:27.729Z,4.76
